createdAt,value
2022-11-17T00:01:15.044Z,3.70
2022-11-17T00:06:42.815Z,3.70
2022-11-17T00:12:43.042Z,3.60
2022-11-17T00:18:29.579Z,3.60
2022-11-17T00:23:58.165Z,3.60
2022-11-17T00:29:25.993Z,3.60
2022-11-17T00:34:53.791Z,3.70
2022-11-17T00:40:21.534Z,3.70
2022-11-17T00:45:49.335Z,3.70
2022-11-17T00:51:17.156Z,3.70
2022-11-17T00:56:45.515Z,3.80
2022-11-17T01:02:13.314Z,3.80
2022-11-17T01:07:41.289Z,3.90
2022-11-17T01:13:09.103Z,4.00
2022-11-17T01:18:37.915Z,4.00
2022-11-17T01:24:06.283Z,4.10
2022-11-17T01:29:34.151Z,4.20
2022-11-17T01:35:02.050Z,4.20
2022-11-17T01:40:29.750Z,4.30
2022-11-17T01:45:58.851Z,4.30
2022-11-17T01:51:30.324Z,4.30
2022-11-17T01:57:04.759Z,4.40
2022-11-17T02:02:34.997Z,4.40
2022-11-17T02:08:06.112Z,4.50
2022-11-17T02:13:36.274Z,4.50
2022-11-17T02:19:04.641Z,4.50
2022-11-17T02:24:50.429Z,4.60
2022-11-17T02:30:22.183Z,4.60
2022-11-17T02:36:07.585Z,4.60
2022-11-17T02:41:50.483Z,4.60
2022-11-17T02:47:32.369Z,4.60
2022-11-17T02:53:00.290Z,4.70
2022-11-17T02:58:28.020Z,4.70
2022-11-17T03:04:30.507Z,4.80
2022-11-17T03:10:17.977Z,4.80
2022-11-17T03:16:17.041Z,4.90
2022-11-17T03:22:18.454Z,4.90
2022-11-17T03:27:52.167Z,4.90
2022-11-17T03:33:23.734Z,4.90
2022-11-17T03:39:04.313Z,4.80
2022-11-17T03:44:38.833Z,4.70
2022-11-17T03:50:18.873Z,4.70
2022-11-17T03:56:16.233Z,4.70
2022-11-17T04:01:44.143Z,4.70
2022-11-17T04:07:12.033Z,4.80
2022-11-17T04:12:58.811Z,4.80
2022-11-17T04:18:27.253Z,4.80
2022-11-17T04:23:56.157Z,4.90
2022-11-17T04:29:23.965Z,4.90
2022-11-17T04:34:51.754Z,5.00
2022-11-17T04:40:19.546Z,5.00
2022-11-17T04:45:47.291Z,5.10
2022-11-17T04:51:16.894Z,5.20
2022-11-17T04:56:45.395Z,5.20
2022-11-17T05:02:13.167Z,5.30
2022-11-17T05:07:41.062Z,5.30
2022-11-17T05:13:22.186Z,5.30
2022-11-17T05:18:49.936Z,5.30
2022-11-17T05:24:18.536Z,5.30
2022-11-17T05:29:46.766Z,5.30
2022-11-17T05:35:14.722Z,5.30
2022-11-17T05:40:42.509Z,5.40
2022-11-17T05:46:10.869Z,5.50
2022-11-17T05:51:38.827Z,5.60
2022-11-17T05:57:22.776Z,5.60
2022-11-17T06:02:58.025Z,5.70
2022-11-17T06:08:29.123Z,5.70
2022-11-17T06:13:56.889Z,5.70
2022-11-17T06:19:39.944Z,5.70
2022-11-17T06:25:10.068Z,5.70
2022-11-17T06:30:39.156Z,5.70
2022-11-17T06:36:08.681Z,5.80
2022-11-17T06:41:36.976Z,5.80
2022-11-17T06:47:04.809Z,5.90
2022-11-17T06:52:32.776Z,5.90
2022-11-17T06:58:09.293Z,6.00
2022-11-17T07:03:39.187Z,6.00
2022-11-17T07:09:07.065Z,6.00
2022-11-17T07:14:35.069Z,6.10
2022-11-17T07:20:04.230Z,6.10
2022-11-17T07:25:32.222Z,6.20
2022-11-17T07:31:06.921Z,6.30
2022-11-17T07:36:34.709Z,6.30
2022-11-17T07:42:02.581Z,6.40
2022-11-17T07:47:30.364Z,6.50
2022-11-17T07:52:58.615Z,6.50
2022-11-17T07:58:26.615Z,6.60
2022-11-17T08:03:54.843Z,6.60
2022-11-17T08:09:22.696Z,6.70
2022-11-17T08:14:50.557Z,6.80
2022-11-17T08:20:18.446Z,6.90
2022-11-17T08:25:46.222Z,6.90
2022-11-17T08:31:14.059Z,6.90
2022-11-17T08:36:41.900Z,7.00
2022-11-17T08:42:09.750Z,7.10
2022-11-17T08:47:38.540Z,7.10
2022-11-17T08:53:06.389Z,7.30
2022-11-17T08:58:45.314Z,7.40
2022-11-17T09:04:13.159Z,7.70
2022-11-17T09:09:41.028Z,8.00
2022-11-17T09:15:09.889Z,8.40
2022-11-17T09:20:42.751Z,8.80
2022-11-17T09:26:15.918Z,9.20
2022-11-17T09:31:43.789Z,9.40
2022-11-17T09:37:11.632Z,9.60
2022-11-17T09:42:41.468Z,9.90
2022-11-17T09:48:46.288Z,10.00
2022-11-17T09:54:30.924Z,10.30
2022-11-17T10:00:14.987Z,10.60
2022-11-17T10:05:43.435Z,10.90
2022-11-17T10:11:33.297Z,11.00
2022-11-17T10:17:01.144Z,11.20
2022-11-17T10:22:38.504Z,11.60
2022-11-17T10:28:08.900Z,11.80
2022-11-17T10:33:48.216Z,11.90
2022-11-17T10:39:41.645Z,12.00
2022-11-17T10:45:18.134Z,12.10
2022-11-17T10:50:58.404Z,12.10
2022-11-17T10:56:26.497Z,12.30
2022-11-17T11:01:54.391Z,12.30
2022-11-17T11:07:23.843Z,12.50
2022-11-17T11:13:10.657Z,12.50
2022-11-17T11:18:39.129Z,12.70
2022-11-17T11:24:35.084Z,12.70
2022-11-17T11:30:06.731Z,12.90
2022-11-17T11:36:15.658Z,13.00
2022-11-17T11:42:08.250Z,13.10
2022-11-17T11:47:57.879Z,13.00
2022-11-17T11:53:47.854Z,12.80
2022-11-17T11:59:21.344Z,12.80
2022-11-17T12:05:14.237Z,12.70
2022-11-17T12:11:27.209Z,12.80
2022-11-17T12:17:14.863Z,12.90
2022-11-17T12:23:03.828Z,13.10
2022-11-17T12:28:40.703Z,12.90
2022-11-17T12:34:11.800Z,12.90
2022-11-17T12:40:08.907Z,12.90
2022-11-17T12:46:13.448Z,12.80
2022-11-17T12:52:05.099Z,12.80
2022-11-17T12:57:34.632Z,12.90
2022-11-17T13:03:27.567Z,12.80
2022-11-17T13:08:56.945Z,12.70
2022-11-17T13:14:24.700Z,12.70
2022-11-17T13:20:17.835Z,12.70
2022-11-17T13:25:45.560Z,12.70
2022-11-17T13:31:24.069Z,12.60
2022-11-17T13:37:00.897Z,12.50
2022-11-17T13:42:32.087Z,12.50
2022-11-17T13:47:59.934Z,12.90
2022-11-17T13:53:27.764Z,13.20
2022-11-17T13:58:56.444Z,14.10
2022-11-17T14:04:24.599Z,14.20
2022-11-17T14:10:12.908Z,13.50
2022-11-17T14:15:42.794Z,13.20
2022-11-17T14:21:18.975Z,12.90
2022-11-17T14:26:46.735Z,12.90
2022-11-17T14:32:14.652Z,13.30
2022-11-17T14:37:43.224Z,13.10
2022-11-17T14:43:11.398Z,12.90
2022-11-17T14:48:39.086Z,12.60
2022-11-17T14:54:07.154Z,12.40
2022-11-17T14:59:35.013Z,12.20
2022-11-17T15:05:03.517Z,12.00
2022-11-17T15:10:31.364Z,11.90
2022-11-17T15:16:06.300Z,11.80
2022-11-17T15:21:35.452Z,11.70
2022-11-17T15:27:03.320Z,11.50
2022-11-17T15:32:31.206Z,11.30
2022-11-17T15:37:59.059Z,11.10
2022-11-17T15:43:32.572Z,10.90
2022-11-17T15:49:00.572Z,10.80
2022-11-17T15:54:28.354Z,10.60
2022-11-17T15:59:56.094Z,10.50
2022-11-17T16:05:23.983Z,10.30
2022-11-17T16:10:52.058Z,10.10
2022-11-17T16:16:20.378Z,10.00
2022-11-17T16:21:49.884Z,9.80
2022-11-17T16:27:17.706Z,9.60
2022-11-17T16:32:45.879Z,9.50
2022-11-17T16:38:16.936Z,9.30
2022-11-17T16:43:44.867Z,9.20
2022-11-17T16:49:17.284Z,9.20
2022-11-17T16:54:45.418Z,9.10
2022-11-17T17:00:15.172Z,9.00
2022-11-17T17:05:42.933Z,8.90
2022-11-17T17:11:15.263Z,8.80
2022-11-17T17:16:43.349Z,8.70
2022-11-17T17:22:11.895Z,8.70
2022-11-17T17:27:39.999Z,8.60
2022-11-17T17:33:09.285Z,8.70
2022-11-17T17:38:37.497Z,8.60
2022-11-17T17:44:07.587Z,8.60
2022-11-17T17:49:35.298Z,8.60
2022-11-17T17:55:03.330Z,8.50
2022-11-17T18:00:31.327Z,8.40
2022-11-17T18:06:02.820Z,8.30
2022-11-17T18:11:30.588Z,8.10
2022-11-17T18:16:58.806Z,8.10
2022-11-17T18:22:26.673Z,8.00
2022-11-17T18:27:54.603Z,7.90
2022-11-17T18:33:22.491Z,7.90
2022-11-17T18:38:52.144Z,7.90
2022-11-17T18:44:20.061Z,7.80
2022-11-17T18:49:47.992Z,7.80
2022-11-17T18:55:15.944Z,7.80
2022-11-17T19:00:43.759Z,7.80
2022-11-17T19:06:13.081Z,7.70
2022-11-17T19:11:40.851Z,7.70
2022-11-17T19:17:08.731Z,7.80
2022-11-17T19:22:36.538Z,7.80
2022-11-17T19:28:05.920Z,7.80
2022-11-17T19:33:35.890Z,7.80
2022-11-17T19:39:04.497Z,7.90
2022-11-17T19:44:32.281Z,8.00
2022-11-17T19:50:00.234Z,8.00
2022-11-17T19:55:27.974Z,8.10
2022-11-17T20:00:55.863Z,8.10
2022-11-17T20:06:27.574Z,8.20
2022-11-17T20:11:55.933Z,8.20
2022-11-17T20:17:25.069Z,8.30
2022-11-17T20:22:52.894Z,8.20
2022-11-17T20:28:20.850Z,8.20
2022-11-17T20:33:49.229Z,8.30
2022-11-17T20:39:17.235Z,8.20
2022-11-17T20:44:48.553Z,8.20
2022-11-17T20:50:16.956Z,8.20
2022-11-17T20:55:44.962Z,8.20
2022-11-17T21:01:19.399Z,8.20
2022-11-17T21:06:47.376Z,8.20
2022-11-17T21:12:15.226Z,8.20
2022-11-17T21:18:01.690Z,8.20
2022-11-17T21:23:29.585Z,8.20
2022-11-17T21:29:01.875Z,8.20
2022-11-17T21:34:33.944Z,8.20
2022-11-17T21:40:01.847Z,8.10
2022-11-17T21:45:29.832Z,8.20
2022-11-17T21:50:57.788Z,8.20
2022-11-17T21:56:28.090Z,8.10
2022-11-17T22:01:56.385Z,8.20
2022-11-17T22:07:24.555Z,8.20
2022-11-17T22:12:52.496Z,8.10
2022-11-17T22:18:20.306Z,8.10
2022-11-17T22:23:48.099Z,8.10
2022-11-17T22:29:21.831Z,8.10
2022-11-17T22:34:49.906Z,8.10
2022-11-17T22:40:18.521Z,8.20
2022-11-17T22:45:46.356Z,8.20
2022-11-17T22:51:34.425Z,8.20
2022-11-17T22:57:02.469Z,8.10
2022-11-17T23:02:30.256Z,8.20
2022-11-17T23:07:58.011Z,8.20
2022-11-17T23:13:25.742Z,8.20
2022-11-17T23:18:55.315Z,8.20
2022-11-17T23:24:23.183Z,8.30
2022-11-17T23:29:50.994Z,8.30
2022-11-17T23:35:18.681Z,8.20
2022-11-17T23:40:46.416Z,8.20
2022-11-17T23:46:18.860Z,8.10
2022-11-17T23:51:46.628Z,8.10
2022-11-17T23:57:14.412Z,8.10
